<?xml version="1.0" encoding="UTF-8" standalone="no" ?>
<gpx xmlns="http://www.topografix.com/GPX/1/1" xmlns:xsi="http://www.w3.org/2001/XMLSchema-instance" xsi:schemaLocation="http://www.topografix.com/GPX/1/1 http://www.topografix.com/GPX/1/1/gpx.xsd" version="1.1" creator="VisuGPX - https://www.visugpx.com">
  <metadata>
    <name>Circuit du 15-06-2012</name>
    <desc><![CDATA[Circuit du 15-06-2012]]></desc>
  </metadata>
  <wpt lat="45.38374" lon="3.75145">
    <ele>664.5</ele>
    <name><![CDATA[Start]]></name>
  </wpt>
  <wpt lat="45.38845" lon="3.74874">
    <ele>643.59997558594</ele>
    <name><![CDATA[Pause]]></name>
  </wpt>
  <wpt lat="45.38835" lon="3.74874">
    <ele>643.90002441406</ele>
    <name><![CDATA[Resume]]></name>
  </wpt>
  <wpt lat="45.38365" lon="3.75135">
    <ele>663.59997558594</ele>
    <name><![CDATA[End]]></name>
  </wpt>
  <trk>
    <name><![CDATA[Circuit du 15-06-2012_1]]></name>
    <trkseg>
      <trkpt lat="45.38374" lon="3.75145">
        <ele>664.5</ele>
        <time>2012-06-15T16:35:36Z</time>
      </trkpt>
      <trkpt lat="45.38376" lon="3.75137">
        <ele>665</ele>
        <time>2012-06-15T16:35:39Z</time>
      </trkpt>
      <trkpt lat="45.3838" lon="3.75138">
        <ele>664.29998779297</ele>
        <time>2012-06-15T16:35:42Z</time>
      </trkpt>
      <trkpt lat="45.38382" lon="3.75145">
        <ele>665.09997558594</ele>
        <time>2012-06-15T16:35:44Z</time>
      </trkpt>
      <trkpt lat="45.38385" lon="3.75154">
        <ele>664.29998779297</ele>
        <time>2012-06-15T16:35:46Z</time>
      </trkpt>
      <trkpt lat="45.38387" lon="3.75162">
        <ele>663.90002441406</ele>
        <time>2012-06-15T16:35:48Z</time>
      </trkpt>
      <trkpt lat="45.38389" lon="3.75168">
        <ele>663.5</ele>
        <time>2012-06-15T16:35:50Z</time>
      </trkpt>
      <trkpt lat="45.38392" lon="3.75175">
        <ele>663</ele>
        <time>2012-06-15T16:35:52Z</time>
      </trkpt>
      <trkpt lat="45.38395" lon="3.75182">
        <ele>662.40002441406</ele>
        <time>2012-06-15T16:35:55Z</time>
      </trkpt>
      <trkpt lat="45.38397" lon="3.7519">
        <ele>661.70001220703</ele>
        <time>2012-06-15T16:35:58Z</time>
      </trkpt>
      <trkpt lat="45.384" lon="3.75198">
        <ele>660.70001220703</ele>
        <time>2012-06-15T16:36:01Z</time>
      </trkpt>
      <trkpt lat="45.38404" lon="3.75214">
        <ele>661</ele>
        <time>2012-06-15T16:36:07Z</time>
      </trkpt>
      <trkpt lat="45.38406" lon="3.75222">
        <ele>660.90002441406</ele>
        <time>2012-06-15T16:36:10Z</time>
      </trkpt>
      <trkpt lat="45.38408" lon="3.7523">
        <ele>660.79998779297</ele>
        <time>2012-06-15T16:36:13Z</time>
      </trkpt>
      <trkpt lat="45.38411" lon="3.75238">
        <ele>660.29998779297</ele>
        <time>2012-06-15T16:36:16Z</time>
      </trkpt>
      <trkpt lat="45.38414" lon="3.75245">
        <ele>662.09997558594</ele>
        <time>2012-06-15T16:36:18Z</time>
      </trkpt>
      <trkpt lat="45.38416" lon="3.75252">
        <ele>661.09997558594</ele>
        <time>2012-06-15T16:36:21Z</time>
      </trkpt>
      <trkpt lat="45.38418" lon="3.75263">
        <ele>660.40002441406</ele>
        <time>2012-06-15T16:36:25Z</time>
      </trkpt>
      <trkpt lat="45.38421" lon="3.75271">
        <ele>659.79998779297</ele>
        <time>2012-06-15T16:36:28Z</time>
      </trkpt>
      <trkpt lat="45.38423" lon="3.75277">
        <ele>660.29998779297</ele>
        <time>2012-06-15T16:36:30Z</time>
      </trkpt>
      <trkpt lat="45.38425" lon="3.75286">
        <ele>659.90002441406</ele>
        <time>2012-06-15T16:36:33Z</time>
      </trkpt>
      <trkpt lat="45.38428" lon="3.75294">
        <ele>660.20001220703</ele>
        <time>2012-06-15T16:36:36Z</time>
      </trkpt>
      <trkpt lat="45.38429" lon="3.75303">
        <ele>659.70001220703</ele>
        <time>2012-06-15T16:36:39Z</time>
      </trkpt>
      <trkpt lat="45.38431" lon="3.75309">
        <ele>659.5</ele>
        <time>2012-06-15T16:36:41Z</time>
      </trkpt>
      <trkpt lat="45.38433" lon="3.75317">
        <ele>659.09997558594</ele>
        <time>2012-06-15T16:36:44Z</time>
      </trkpt>
      <trkpt lat="45.38436" lon="3.75325">
        <ele>658.20001220703</ele>
        <time>2012-06-15T16:36:47Z</time>
      </trkpt>
      <trkpt lat="45.38438" lon="3.75331">
        <ele>657.90002441406</ele>
        <time>2012-06-15T16:36:49Z</time>
      </trkpt>
      <trkpt lat="45.38439" lon="3.75339">
        <ele>657.79998779297</ele>
        <time>2012-06-15T16:36:52Z</time>
      </trkpt>
      <trkpt lat="45.38442" lon="3.75347">
        <ele>657.70001220703</ele>
        <time>2012-06-15T16:36:55Z</time>
      </trkpt>
      <trkpt lat="45.38445" lon="3.75355">
        <ele>657.5</ele>
        <time>2012-06-15T16:36:58Z</time>
      </trkpt>
      <trkpt lat="45.38447" lon="3.75363">
        <ele>657.79998779297</ele>
        <time>2012-06-15T16:37:01Z</time>
      </trkpt>
      <trkpt lat="45.3845" lon="3.75372">
        <ele>658.20001220703</ele>
        <time>2012-06-15T16:37:04Z</time>
      </trkpt>
      <trkpt lat="45.38452" lon="3.75378">
        <ele>658.09997558594</ele>
        <time>2012-06-15T16:37:06Z</time>
      </trkpt>
      <trkpt lat="45.38454" lon="3.75386">
        <ele>657.79998779297</ele>
        <time>2012-06-15T16:37:09Z</time>
      </trkpt>
      <trkpt lat="45.38456" lon="3.75392">
        <ele>657.70001220703</ele>
        <time>2012-06-15T16:37:11Z</time>
      </trkpt>
      <trkpt lat="45.38458" lon="3.75398">
        <ele>656.79998779297</ele>
        <time>2012-06-15T16:37:13Z</time>
      </trkpt>
      <trkpt lat="45.3846" lon="3.75406">
        <ele>656.90002441406</ele>
        <time>2012-06-15T16:37:16Z</time>
      </trkpt>
      <trkpt lat="45.38462" lon="3.75415">
        <ele>656.70001220703</ele>
        <time>2012-06-15T16:37:19Z</time>
      </trkpt>
      <trkpt lat="45.38464" lon="3.75421">
        <ele>656.5</ele>
        <time>2012-06-15T16:37:21Z</time>
      </trkpt>
      <trkpt lat="45.38466" lon="3.75427">
        <ele>656.29998779297</ele>
        <time>2012-06-15T16:37:23Z</time>
      </trkpt>
      <trkpt lat="45.38468" lon="3.75435">
        <ele>656</ele>
        <time>2012-06-15T16:37:26Z</time>
      </trkpt>
      <trkpt lat="45.3847" lon="3.75442">
        <ele>656.5</ele>
        <time>2012-06-15T16:37:29Z</time>
      </trkpt>
      <trkpt lat="45.38472" lon="3.7545">
        <ele>656.09997558594</ele>
        <time>2012-06-15T16:37:32Z</time>
      </trkpt>
      <trkpt lat="45.38474" lon="3.75457">
        <ele>656.20001220703</ele>
        <time>2012-06-15T16:37:35Z</time>
      </trkpt>
      <trkpt lat="45.38477" lon="3.75464">
        <ele>656.59997558594</ele>
        <time>2012-06-15T16:37:38Z</time>
      </trkpt>
      <trkpt lat="45.38479" lon="3.75471">
        <ele>656.5</ele>
        <time>2012-06-15T16:37:40Z</time>
      </trkpt>
      <trkpt lat="45.38481" lon="3.75477">
        <ele>656.5</ele>
        <time>2012-06-15T16:37:42Z</time>
      </trkpt>
      <trkpt lat="45.38483" lon="3.75483">
        <ele>656.40002441406</ele>
        <time>2012-06-15T16:37:44Z</time>
      </trkpt>
      <trkpt lat="45.38485" lon="3.75489">
        <ele>656.29998779297</ele>
        <time>2012-06-15T16:37:46Z</time>
      </trkpt>
      <trkpt lat="45.38487" lon="3.75496">
        <ele>656.20001220703</ele>
        <time>2012-06-15T16:37:48Z</time>
      </trkpt>
      <trkpt lat="45.38489" lon="3.75502">
        <ele>656.29998779297</ele>
        <time>2012-06-15T16:37:50Z</time>
      </trkpt>
      <trkpt lat="45.38491" lon="3.7551">
        <ele>656.09997558594</ele>
        <time>2012-06-15T16:37:53Z</time>
      </trkpt>
      <trkpt lat="45.38494" lon="3.75518">
        <ele>656.29998779297</ele>
        <time>2012-06-15T16:37:56Z</time>
      </trkpt>
      <trkpt lat="45.38496" lon="3.75526">
        <ele>655.59997558594</ele>
        <time>2012-06-15T16:37:59Z</time>
      </trkpt>
      <trkpt lat="45.38498" lon="3.75534">
        <ele>656.09997558594</ele>
        <time>2012-06-15T16:38:02Z</time>
      </trkpt>
      <trkpt lat="45.38499" lon="3.75543">
        <ele>655.70001220703</ele>
        <time>2012-06-15T16:38:05Z</time>
      </trkpt>
      <trkpt lat="45.38501" lon="3.75551">
        <ele>655</ele>
        <time>2012-06-15T16:38:08Z</time>
      </trkpt>
      <trkpt lat="45.38505" lon="3.75568">
        <ele>656.29998779297</ele>
        <time>2012-06-15T16:38:15Z</time>
      </trkpt>
      <trkpt lat="45.38506" lon="3.75576">
        <ele>656.59997558594</ele>
        <time>2012-06-15T16:38:18Z</time>
      </trkpt>
      <trkpt lat="45.38505" lon="3.75584">
        <ele>655.20001220703</ele>
        <time>2012-06-15T16:38:21Z</time>
      </trkpt>
      <trkpt lat="45.38505" lon="3.75593">
        <ele>654.90002441406</ele>
        <time>2012-06-15T16:38:24Z</time>
      </trkpt>
      <trkpt lat="45.38506" lon="3.75601">
        <ele>655.5</ele>
        <time>2012-06-15T16:38:27Z</time>
      </trkpt>
      <trkpt lat="45.38507" lon="3.7561">
        <ele>655.5</ele>
        <time>2012-06-15T16:38:30Z</time>
      </trkpt>
      <trkpt lat="45.38507" lon="3.75617">
        <ele>654.40002441406</ele>
        <time>2012-06-15T16:38:33Z</time>
      </trkpt>
      <trkpt lat="45.38508" lon="3.75625">
        <ele>654.59997558594</ele>
        <time>2012-06-15T16:38:36Z</time>
      </trkpt>
      <trkpt lat="45.38509" lon="3.75634">
        <ele>655.70001220703</ele>
        <time>2012-06-15T16:38:39Z</time>
      </trkpt>
      <trkpt lat="45.3851" lon="3.75643">
        <ele>656.70001220703</ele>
        <time>2012-06-15T16:38:42Z</time>
      </trkpt>
      <trkpt lat="45.38511" lon="3.7565">
        <ele>656.70001220703</ele>
        <time>2012-06-15T16:38:45Z</time>
      </trkpt>
      <trkpt lat="45.38514" lon="3.75657">
        <ele>655.79998779297</ele>
        <time>2012-06-15T16:38:48Z</time>
      </trkpt>
      <trkpt lat="45.38517" lon="3.75663">
        <ele>656.09997558594</ele>
        <time>2012-06-15T16:38:51Z</time>
      </trkpt>
      <trkpt lat="45.38522" lon="3.75667">
        <ele>656.5</ele>
        <time>2012-06-15T16:38:54Z</time>
      </trkpt>
      <trkpt lat="45.38526" lon="3.75668">
        <ele>655.90002441406</ele>
        <time>2012-06-15T16:38:57Z</time>
      </trkpt>
      <trkpt lat="45.38533" lon="3.75668">
        <ele>655.5</ele>
        <time>2012-06-15T16:39:00Z</time>
      </trkpt>
      <trkpt lat="45.38537" lon="3.75668">
        <ele>656</ele>
        <time>2012-06-15T16:39:02Z</time>
      </trkpt>
      <trkpt lat="45.38549" lon="3.75668">
        <ele>654.59997558594</ele>
        <time>2012-06-15T16:39:08Z</time>
      </trkpt>
      <trkpt lat="45.38554" lon="3.75668">
        <ele>655.29998779297</ele>
        <time>2012-06-15T16:39:10Z</time>
      </trkpt>
      <trkpt lat="45.38559" lon="3.75668">
        <ele>654.59997558594</ele>
        <time>2012-06-15T16:39:12Z</time>
      </trkpt>
      <trkpt lat="45.38565" lon="3.75669">
        <ele>655.90002441406</ele>
        <time>2012-06-15T16:39:15Z</time>
      </trkpt>
      <trkpt lat="45.3857" lon="3.75671">
        <ele>656.70001220703</ele>
        <time>2012-06-15T16:39:17Z</time>
      </trkpt>
      <trkpt lat="45.38575" lon="3.75674">
        <ele>657</ele>
        <time>2012-06-15T16:39:20Z</time>
      </trkpt>
      <trkpt lat="45.3858" lon="3.75677">
        <ele>657.90002441406</ele>
        <time>2012-06-15T16:39:23Z</time>
      </trkpt>
      <trkpt lat="45.38585" lon="3.75679">
        <ele>658.29998779297</ele>
        <time>2012-06-15T16:39:26Z</time>
      </trkpt>
      <trkpt lat="45.38595" lon="3.75688">
        <ele>656.40002441406</ele>
        <time>2012-06-15T16:39:32Z</time>
      </trkpt>
      <trkpt lat="45.38601" lon="3.75695">
        <ele>656.09997558594</ele>
        <time>2012-06-15T16:39:35Z</time>
      </trkpt>
      <trkpt lat="45.38606" lon="3.75699">
        <ele>657.09997558594</ele>
        <time>2012-06-15T16:39:38Z</time>
      </trkpt>
      <trkpt lat="45.3861" lon="3.75704">
        <ele>656.70001220703</ele>
        <time>2012-06-15T16:39:41Z</time>
      </trkpt>
      <trkpt lat="45.38615" lon="3.75708">
        <ele>657.09997558594</ele>
        <time>2012-06-15T16:39:44Z</time>
      </trkpt>
      <trkpt lat="45.38617" lon="3.75713">
        <ele>657.5</ele>
        <time>2012-06-15T16:39:46Z</time>
      </trkpt>
      <trkpt lat="45.3862" lon="3.75718">
        <ele>658.59997558594</ele>
        <time>2012-06-15T16:39:50Z</time>
      </trkpt>
      <trkpt lat="45.38631" lon="3.75727">
        <ele>659.40002441406</ele>
        <time>2012-06-15T16:39:56Z</time>
      </trkpt>
      <trkpt lat="45.38637" lon="3.75733">
        <ele>662.20001220703</ele>
        <time>2012-06-15T16:39:59Z</time>
      </trkpt>
      <trkpt lat="45.38642" lon="3.75735">
        <ele>663.59997558594</ele>
        <time>2012-06-15T16:40:01Z</time>
      </trkpt>
      <trkpt lat="45.38651" lon="3.75745">
        <ele>665.20001220703</ele>
        <time>2012-06-15T16:40:06Z</time>
      </trkpt>
      <trkpt lat="45.38654" lon="3.75751">
        <ele>664.40002441406</ele>
        <time>2012-06-15T16:40:09Z</time>
      </trkpt>
      <trkpt lat="45.38657" lon="3.75756">
        <ele>665.5</ele>
        <time>2012-06-15T16:40:11Z</time>
      </trkpt>
      <trkpt lat="45.38662" lon="3.75762">
        <ele>664.90002441406</ele>
        <time>2012-06-15T16:40:14Z</time>
      </trkpt>
      <trkpt lat="45.38668" lon="3.75767">
        <ele>664.29998779297</ele>
        <time>2012-06-15T16:40:17Z</time>
      </trkpt>
      <trkpt lat="45.3867" lon="3.75773">
        <ele>661.59997558594</ele>
        <time>2012-06-15T16:40:20Z</time>
      </trkpt>
      <trkpt lat="45.38675" lon="3.75778">
        <ele>662.90002441406</ele>
        <time>2012-06-15T16:40:23Z</time>
      </trkpt>
      <trkpt lat="45.38679" lon="3.75783">
        <ele>663.40002441406</ele>
        <time>2012-06-15T16:40:26Z</time>
      </trkpt>
      <trkpt lat="45.38684" lon="3.75789">
        <ele>663.70001220703</ele>
        <time>2012-06-15T16:40:29Z</time>
      </trkpt>
      <trkpt lat="45.38687" lon="3.75792">
        <ele>663.70001220703</ele>
        <time>2012-06-15T16:40:31Z</time>
      </trkpt>
      <trkpt lat="45.38692" lon="3.75798">
        <ele>664.20001220703</ele>
        <time>2012-06-15T16:40:34Z</time>
      </trkpt>
      <trkpt lat="45.38697" lon="3.75802">
        <ele>664.29998779297</ele>
        <time>2012-06-15T16:40:37Z</time>
      </trkpt>
      <trkpt lat="45.38701" lon="3.75808">
        <ele>664.09997558594</ele>
        <time>2012-06-15T16:40:40Z</time>
      </trkpt>
      <trkpt lat="45.38705" lon="3.75814">
        <ele>663.29998779297</ele>
        <time>2012-06-15T16:40:43Z</time>
      </trkpt>
      <trkpt lat="45.38709" lon="3.7582">
        <ele>663</ele>
        <time>2012-06-15T16:40:46Z</time>
      </trkpt>
      <trkpt lat="45.38713" lon="3.75827">
        <ele>663</ele>
        <time>2012-06-15T16:40:49Z</time>
      </trkpt>
      <trkpt lat="45.38717" lon="3.75833">
        <ele>663.79998779297</ele>
        <time>2012-06-15T16:40:52Z</time>
      </trkpt>
      <trkpt lat="45.38721" lon="3.7584">
        <ele>663.20001220703</ele>
        <time>2012-06-15T16:40:55Z</time>
      </trkpt>
      <trkpt lat="45.38725" lon="3.75847">
        <ele>663.59997558594</ele>
        <time>2012-06-15T16:40:58Z</time>
      </trkpt>
      <trkpt lat="45.3873" lon="3.75853">
        <ele>664.20001220703</ele>
        <time>2012-06-15T16:41:01Z</time>
      </trkpt>
      <trkpt lat="45.38734" lon="3.75858">
        <ele>664.5</ele>
        <time>2012-06-15T16:41:04Z</time>
      </trkpt>
      <trkpt lat="45.38736" lon="3.75864">
        <ele>662.79998779297</ele>
        <time>2012-06-15T16:41:07Z</time>
      </trkpt>
      <trkpt lat="45.38741" lon="3.7587">
        <ele>662.5</ele>
        <time>2012-06-15T16:41:10Z</time>
      </trkpt>
      <trkpt lat="45.38746" lon="3.75876">
        <ele>662.79998779297</ele>
        <time>2012-06-15T16:41:13Z</time>
      </trkpt>
      <trkpt lat="45.3875" lon="3.75881">
        <ele>662.59997558594</ele>
        <time>2012-06-15T16:41:16Z</time>
      </trkpt>
      <trkpt lat="45.38755" lon="3.75885">
        <ele>662.90002441406</ele>
        <time>2012-06-15T16:41:19Z</time>
      </trkpt>
      <trkpt lat="45.38759" lon="3.75888">
        <ele>663</ele>
        <time>2012-06-15T16:41:21Z</time>
      </trkpt>
      <trkpt lat="45.38763" lon="3.75892">
        <ele>663.5</ele>
        <time>2012-06-15T16:41:23Z</time>
      </trkpt>
      <trkpt lat="45.38768" lon="3.75895">
        <ele>664.40002441406</ele>
        <time>2012-06-15T16:41:25Z</time>
      </trkpt>
      <trkpt lat="45.38772" lon="3.75898">
        <ele>665</ele>
        <time>2012-06-15T16:41:27Z</time>
      </trkpt>
      <trkpt lat="45.38776" lon="3.75901">
        <ele>665</ele>
        <time>2012-06-15T16:41:29Z</time>
      </trkpt>
      <trkpt lat="45.38781" lon="3.75905">
        <ele>664.90002441406</ele>
        <time>2012-06-15T16:41:32Z</time>
      </trkpt>
      <trkpt lat="45.38787" lon="3.75907">
        <ele>664.29998779297</ele>
        <time>2012-06-15T16:41:35Z</time>
      </trkpt>
      <trkpt lat="45.38792" lon="3.75908">
        <ele>664.29998779297</ele>
        <time>2012-06-15T16:41:37Z</time>
      </trkpt>
      <trkpt lat="45.38798" lon="3.7591">
        <ele>664.29998779297</ele>
        <time>2012-06-15T16:41:40Z</time>
      </trkpt>
      <trkpt lat="45.38804" lon="3.75912">
        <ele>663.79998779297</ele>
        <time>2012-06-15T16:41:43Z</time>
      </trkpt>
      <trkpt lat="45.3881" lon="3.75914">
        <ele>663.59997558594</ele>
        <time>2012-06-15T16:41:46Z</time>
      </trkpt>
      <trkpt lat="45.38816" lon="3.75915">
        <ele>663.79998779297</ele>
        <time>2012-06-15T16:41:49Z</time>
      </trkpt>
      <trkpt lat="45.38826" lon="3.75918">
        <ele>663.59997558594</ele>
        <time>2012-06-15T16:41:54Z</time>
      </trkpt>
      <trkpt lat="45.38832" lon="3.75919">
        <ele>663.29998779297</ele>
        <time>2012-06-15T16:41:57Z</time>
      </trkpt>
      <trkpt lat="45.38837" lon="3.75919">
        <ele>663.09997558594</ele>
        <time>2012-06-15T16:41:59Z</time>
      </trkpt>
      <trkpt lat="45.38842" lon="3.75919">
        <ele>663.79998779297</ele>
        <time>2012-06-15T16:42:01Z</time>
      </trkpt>
      <trkpt lat="45.38846" lon="3.75919">
        <ele>662.90002441406</ele>
        <time>2012-06-15T16:42:03Z</time>
      </trkpt>
      <trkpt lat="45.38851" lon="3.75919">
        <ele>662.5</ele>
        <time>2012-06-15T16:42:05Z</time>
      </trkpt>
      <trkpt lat="45.38856" lon="3.75919">
        <ele>663.20001220703</ele>
        <time>2012-06-15T16:42:07Z</time>
      </trkpt>
      <trkpt lat="45.38862" lon="3.7592">
        <ele>663.09997558594</ele>
        <time>2012-06-15T16:42:11Z</time>
      </trkpt>
      <trkpt lat="45.38874" lon="3.75919">
        <ele>664.40002441406</ele>
        <time>2012-06-15T16:42:17Z</time>
      </trkpt>
      <trkpt lat="45.38885" lon="3.75918">
        <ele>660.90002441406</ele>
        <time>2012-06-15T16:42:23Z</time>
      </trkpt>
      <trkpt lat="45.38891" lon="3.75918">
        <ele>660</ele>
        <time>2012-06-15T16:42:25Z</time>
      </trkpt>
      <trkpt lat="45.38899" lon="3.7592">
        <ele>659.40002441406</ele>
        <time>2012-06-15T16:42:28Z</time>
      </trkpt>
      <trkpt lat="45.38904" lon="3.75919">
        <ele>659.09997558594</ele>
        <time>2012-06-15T16:42:30Z</time>
      </trkpt>
      <trkpt lat="45.3891" lon="3.75919">
        <ele>660.09997558594</ele>
        <time>2012-06-15T16:42:33Z</time>
      </trkpt>
      <trkpt lat="45.38917" lon="3.75919">
        <ele>659.70001220703</ele>
        <time>2012-06-15T16:42:36Z</time>
      </trkpt>
      <trkpt lat="45.38921" lon="3.75919">
        <ele>659.20001220703</ele>
        <time>2012-06-15T16:42:38Z</time>
      </trkpt>
      <trkpt lat="45.38926" lon="3.75918">
        <ele>659.20001220703</ele>
        <time>2012-06-15T16:42:40Z</time>
      </trkpt>
      <trkpt lat="45.38931" lon="3.75918">
        <ele>658.90002441406</ele>
        <time>2012-06-15T16:42:42Z</time>
      </trkpt>
      <trkpt lat="45.38935" lon="3.75918">
        <ele>658.79998779297</ele>
        <time>2012-06-15T16:42:44Z</time>
      </trkpt>
      <trkpt lat="45.38942" lon="3.75918">
        <ele>660.09997558594</ele>
        <time>2012-06-15T16:42:47Z</time>
      </trkpt>
      <trkpt lat="45.38946" lon="3.75919">
        <ele>659.29998779297</ele>
        <time>2012-06-15T16:42:49Z</time>
      </trkpt>
      <trkpt lat="45.38951" lon="3.75919">
        <ele>658.59997558594</ele>
        <time>2012-06-15T16:42:51Z</time>
      </trkpt>
      <trkpt lat="45.38956" lon="3.75919">
        <ele>659.79998779297</ele>
        <time>2012-06-15T16:42:53Z</time>
      </trkpt>
      <trkpt lat="45.38961" lon="3.7592">
        <ele>659.79998779297</ele>
        <time>2012-06-15T16:42:55Z</time>
      </trkpt>
      <trkpt lat="45.38967" lon="3.75923">
        <ele>659.20001220703</ele>
        <time>2012-06-15T16:42:58Z</time>
      </trkpt>
      <trkpt lat="45.38977" lon="3.75928">
        <ele>659.29998779297</ele>
        <time>2012-06-15T16:43:03Z</time>
      </trkpt>
      <trkpt lat="45.38981" lon="3.75931">
        <ele>659.59997558594</ele>
        <time>2012-06-15T16:43:05Z</time>
      </trkpt>
      <trkpt lat="45.3899" lon="3.75935">
        <ele>660.20001220703</ele>
        <time>2012-06-15T16:43:09Z</time>
      </trkpt>
      <trkpt lat="45.38995" lon="3.75937">
        <ele>660.29998779297</ele>
        <time>2012-06-15T16:43:11Z</time>
      </trkpt>
      <trkpt lat="45.39001" lon="3.75939">
        <ele>660.5</ele>
        <time>2012-06-15T16:43:14Z</time>
      </trkpt>
      <trkpt lat="45.39006" lon="3.75939">
        <ele>660.90002441406</ele>
        <time>2012-06-15T16:43:17Z</time>
      </trkpt>
      <trkpt lat="45.39011" lon="3.7594">
        <ele>658.5</ele>
        <time>2012-06-15T16:43:20Z</time>
      </trkpt>
      <trkpt lat="45.39015" lon="3.75942">
        <ele>658.09997558594</ele>
        <time>2012-06-15T16:43:22Z</time>
      </trkpt>
      <trkpt lat="45.39022" lon="3.75944">
        <ele>657.40002441406</ele>
        <time>2012-06-15T16:43:25Z</time>
      </trkpt>
      <trkpt lat="45.39028" lon="3.75947">
        <ele>658.09997558594</ele>
        <time>2012-06-15T16:43:28Z</time>
      </trkpt>
      <trkpt lat="45.39034" lon="3.75948">
        <ele>658.5</ele>
        <time>2012-06-15T16:43:31Z</time>
      </trkpt>
      <trkpt lat="45.3904" lon="3.75945">
        <ele>658.59997558594</ele>
        <time>2012-06-15T16:43:33Z</time>
      </trkpt>
      <trkpt lat="45.39044" lon="3.75941">
        <ele>659.40002441406</ele>
        <time>2012-06-15T16:43:35Z</time>
      </trkpt>
      <trkpt lat="45.39047" lon="3.75933">
        <ele>659.90002441406</ele>
        <time>2012-06-15T16:43:38Z</time>
      </trkpt>
      <trkpt lat="45.39052" lon="3.75927">
        <ele>659.29998779297</ele>
        <time>2012-06-15T16:43:41Z</time>
      </trkpt>
      <trkpt lat="45.39065" lon="3.75918">
        <ele>660.09997558594</ele>
        <time>2012-06-15T16:43:47Z</time>
      </trkpt>
      <trkpt lat="45.3907" lon="3.75914">
        <ele>660.40002441406</ele>
        <time>2012-06-15T16:43:50Z</time>
      </trkpt>
      <trkpt lat="45.39084" lon="3.75907">
        <ele>660.59997558594</ele>
        <time>2012-06-15T16:43:57Z</time>
      </trkpt>
      <trkpt lat="45.39088" lon="3.75903">
        <ele>660.09997558594</ele>
        <time>2012-06-15T16:43:59Z</time>
      </trkpt>
      <trkpt lat="45.39095" lon="3.75899">
        <ele>657.59997558594</ele>
        <time>2012-06-15T16:44:02Z</time>
      </trkpt>
      <trkpt lat="45.39099" lon="3.75896">
        <ele>657.40002441406</ele>
        <time>2012-06-15T16:44:04Z</time>
      </trkpt>
      <trkpt lat="45.39104" lon="3.75891">
        <ele>657.70001220703</ele>
        <time>2012-06-15T16:44:07Z</time>
      </trkpt>
      <trkpt lat="45.39109" lon="3.75888">
        <ele>658.40002441406</ele>
        <time>2012-06-15T16:44:09Z</time>
      </trkpt>
      <trkpt lat="45.39116" lon="3.75883">
        <ele>657.79998779297</ele>
        <time>2012-06-15T16:44:12Z</time>
      </trkpt>
      <trkpt lat="45.39123" lon="3.75879">
        <ele>657.90002441406</ele>
        <time>2012-06-15T16:44:15Z</time>
      </trkpt>
      <trkpt lat="45.39129" lon="3.75875">
        <ele>658.70001220703</ele>
        <time>2012-06-15T16:44:17Z</time>
      </trkpt>
      <trkpt lat="45.39138" lon="3.75865">
        <ele>657.40002441406</ele>
        <time>2012-06-15T16:44:22Z</time>
      </trkpt>
      <trkpt lat="45.39148" lon="3.75863">
        <ele>657.59997558594</ele>
        <time>2012-06-15T16:44:26Z</time>
      </trkpt>
      <trkpt lat="45.39155" lon="3.7586">
        <ele>656.29998779297</ele>
        <time>2012-06-15T16:44:29Z</time>
      </trkpt>
      <trkpt lat="45.39159" lon="3.75855">
        <ele>653.70001220703</ele>
        <time>2012-06-15T16:44:33Z</time>
      </trkpt>
      <trkpt lat="45.39164" lon="3.75852">
        <ele>653.5</ele>
        <time>2012-06-15T16:44:35Z</time>
      </trkpt>
      <trkpt lat="45.39168" lon="3.75849">
        <ele>654</ele>
        <time>2012-06-15T16:44:37Z</time>
      </trkpt>
      <trkpt lat="45.39174" lon="3.75845">
        <ele>653.5</ele>
        <time>2012-06-15T16:44:40Z</time>
      </trkpt>
      <trkpt lat="45.39194" lon="3.75834">
        <ele>653</ele>
        <time>2012-06-15T16:44:49Z</time>
      </trkpt>
      <trkpt lat="45.39198" lon="3.75831">
        <ele>653.79998779297</ele>
        <time>2012-06-15T16:44:51Z</time>
      </trkpt>
      <trkpt lat="45.39202" lon="3.75826">
        <ele>655.29998779297</ele>
        <time>2012-06-15T16:44:54Z</time>
      </trkpt>
      <trkpt lat="45.39205" lon="3.75821">
        <ele>656</ele>
        <time>2012-06-15T16:44:56Z</time>
      </trkpt>
      <trkpt lat="45.39209" lon="3.75815">
        <ele>656.59997558594</ele>
        <time>2012-06-15T16:44:58Z</time>
      </trkpt>
      <trkpt lat="45.39209" lon="3.75806">
        <ele>656.29998779297</ele>
        <time>2012-06-15T16:45:01Z</time>
      </trkpt>
      <trkpt lat="45.39209" lon="3.75795">
        <ele>655.5</ele>
        <time>2012-06-15T16:45:04Z</time>
      </trkpt>
      <trkpt lat="45.3921" lon="3.75789">
        <ele>654.79998779297</ele>
        <time>2012-06-15T16:45:06Z</time>
      </trkpt>
      <trkpt lat="45.39212" lon="3.75771">
        <ele>654.29998779297</ele>
        <time>2012-06-15T16:45:12Z</time>
      </trkpt>
      <trkpt lat="45.39212" lon="3.75762">
        <ele>655.70001220703</ele>
        <time>2012-06-15T16:45:15Z</time>
      </trkpt>
      <trkpt lat="45.39211" lon="3.75755">
        <ele>655.20001220703</ele>
        <time>2012-06-15T16:45:17Z</time>
      </trkpt>
      <trkpt lat="45.3921" lon="3.75746">
        <ele>654.90002441406</ele>
        <time>2012-06-15T16:45:20Z</time>
      </trkpt>
      <trkpt lat="45.39208" lon="3.7574">
        <ele>654.79998779297</ele>
        <time>2012-06-15T16:45:22Z</time>
      </trkpt>
      <trkpt lat="45.39206" lon="3.75734">
        <ele>654</ele>
        <time>2012-06-15T16:45:24Z</time>
      </trkpt>
      <trkpt lat="45.39206" lon="3.75708">
        <ele>654.90002441406</ele>
        <time>2012-06-15T16:45:32Z</time>
      </trkpt>
      <trkpt lat="45.39207" lon="3.75701">
        <ele>656</ele>
        <time>2012-06-15T16:45:34Z</time>
      </trkpt>
      <trkpt lat="45.39208" lon="3.75693">
        <ele>657.29998779297</ele>
        <time>2012-06-15T16:45:36Z</time>
      </trkpt>
      <trkpt lat="45.39207" lon="3.75683">
        <ele>657.79998779297</ele>
        <time>2012-06-15T16:45:39Z</time>
      </trkpt>
      <trkpt lat="45.39211" lon="3.75661">
        <ele>658.40002441406</ele>
        <time>2012-06-15T16:45:46Z</time>
      </trkpt>
      <trkpt lat="45.39209" lon="3.75655">
        <ele>657.5</ele>
        <time>2012-06-15T16:45:48Z</time>
      </trkpt>
      <trkpt lat="45.39213" lon="3.75649">
        <ele>655.90002441406</ele>
        <time>2012-06-15T16:45:51Z</time>
      </trkpt>
      <trkpt lat="45.39214" lon="3.75641">
        <ele>654.20001220703</ele>
        <time>2012-06-15T16:45:53Z</time>
      </trkpt>
      <trkpt lat="45.39217" lon="3.75628">
        <ele>654.5</ele>
        <time>2012-06-15T16:45:57Z</time>
      </trkpt>
      <trkpt lat="45.39218" lon="3.7562">
        <ele>654</ele>
        <time>2012-06-15T16:46:00Z</time>
      </trkpt>
      <trkpt lat="45.39223" lon="3.75605">
        <ele>652.5</ele>
        <time>2012-06-15T16:46:04Z</time>
      </trkpt>
      <trkpt lat="45.39224" lon="3.75596">
        <ele>651.90002441406</ele>
        <time>2012-06-15T16:46:07Z</time>
      </trkpt>
      <trkpt lat="45.39228" lon="3.75593">
        <ele>648.29998779297</ele>
        <time>2012-06-15T16:46:09Z</time>
      </trkpt>
      <trkpt lat="45.39231" lon="3.7558">
        <ele>646.79998779297</ele>
        <time>2012-06-15T16:46:14Z</time>
      </trkpt>
      <trkpt lat="45.39233" lon="3.75573">
        <ele>648</ele>
        <time>2012-06-15T16:46:16Z</time>
      </trkpt>
      <trkpt lat="45.39233" lon="3.75565">
        <ele>648.40002441406</ele>
        <time>2012-06-15T16:46:19Z</time>
      </trkpt>
      <trkpt lat="45.39235" lon="3.75556">
        <ele>650</ele>
        <time>2012-06-15T16:46:21Z</time>
      </trkpt>
      <trkpt lat="45.39237" lon="3.75548">
        <ele>649.79998779297</ele>
        <time>2012-06-15T16:46:23Z</time>
      </trkpt>
      <trkpt lat="45.39237" lon="3.75541">
        <ele>649.5</ele>
        <time>2012-06-15T16:46:25Z</time>
      </trkpt>
      <trkpt lat="45.39235" lon="3.75531">
        <ele>648.90002441406</ele>
        <time>2012-06-15T16:46:28Z</time>
      </trkpt>
      <trkpt lat="45.39239" lon="3.75525">
        <ele>647.59997558594</ele>
        <time>2012-06-15T16:46:30Z</time>
      </trkpt>
      <trkpt lat="45.39242" lon="3.75518">
        <ele>647.59997558594</ele>
        <time>2012-06-15T16:46:32Z</time>
      </trkpt>
      <trkpt lat="45.39243" lon="3.75509">
        <ele>648.40002441406</ele>
        <time>2012-06-15T16:46:35Z</time>
      </trkpt>
      <trkpt lat="45.39242" lon="3.75501">
        <ele>651.20001220703</ele>
        <time>2012-06-15T16:46:37Z</time>
      </trkpt>
      <trkpt lat="45.39242" lon="3.75494">
        <ele>648.5</ele>
        <time>2012-06-15T16:46:40Z</time>
      </trkpt>
      <trkpt lat="45.39242" lon="3.75487">
        <ele>649.29998779297</ele>
        <time>2012-06-15T16:46:42Z</time>
      </trkpt>
      <trkpt lat="45.39241" lon="3.7548">
        <ele>649.70001220703</ele>
        <time>2012-06-15T16:46:44Z</time>
      </trkpt>
      <trkpt lat="45.39241" lon="3.75473">
        <ele>650</ele>
        <time>2012-06-15T16:46:46Z</time>
      </trkpt>
      <trkpt lat="45.39242" lon="3.75466">
        <ele>649.79998779297</ele>
        <time>2012-06-15T16:46:48Z</time>
      </trkpt>
      <trkpt lat="45.39242" lon="3.75457">
        <ele>649.20001220703</ele>
        <time>2012-06-15T16:46:51Z</time>
      </trkpt>
      <trkpt lat="45.39243" lon="3.75448">
        <ele>648.79998779297</ele>
        <time>2012-06-15T16:46:54Z</time>
      </trkpt>
      <trkpt lat="45.39243" lon="3.75438">
        <ele>648.20001220703</ele>
        <time>2012-06-15T16:46:56Z</time>
      </trkpt>
      <trkpt lat="45.39242" lon="3.7543">
        <ele>648.40002441406</ele>
        <time>2012-06-15T16:46:59Z</time>
      </trkpt>
      <trkpt lat="45.39243" lon="3.75423">
        <ele>647.70001220703</ele>
        <time>2012-06-15T16:47:01Z</time>
      </trkpt>
      <trkpt lat="45.39243" lon="3.75416">
        <ele>647.5</ele>
        <time>2012-06-15T16:47:03Z</time>
      </trkpt>
      <trkpt lat="45.39243" lon="3.75409">
        <ele>647.79998779297</ele>
        <time>2012-06-15T16:47:05Z</time>
      </trkpt>
      <trkpt lat="45.39243" lon="3.75402">
        <ele>648</ele>
        <time>2012-06-15T16:47:07Z</time>
      </trkpt>
      <trkpt lat="45.39243" lon="3.75395">
        <ele>648.40002441406</ele>
        <time>2012-06-15T16:47:09Z</time>
      </trkpt>
      <trkpt lat="45.39243" lon="3.75379">
        <ele>648.5</ele>
        <time>2012-06-15T16:47:14Z</time>
      </trkpt>
      <trkpt lat="45.39243" lon="3.7537">
        <ele>647.79998779297</ele>
        <time>2012-06-15T16:47:17Z</time>
      </trkpt>
      <trkpt lat="45.39243" lon="3.75363">
        <ele>647.70001220703</ele>
        <time>2012-06-15T16:47:19Z</time>
      </trkpt>
      <trkpt lat="45.39243" lon="3.75356">
        <ele>647.70001220703</ele>
        <time>2012-06-15T16:47:21Z</time>
      </trkpt>
      <trkpt lat="45.39243" lon="3.75346">
        <ele>649</ele>
        <time>2012-06-15T16:47:24Z</time>
      </trkpt>
      <trkpt lat="45.39242" lon="3.75329">
        <ele>649.79998779297</ele>
        <time>2012-06-15T16:47:30Z</time>
      </trkpt>
      <trkpt lat="45.39243" lon="3.75319">
        <ele>649.70001220703</ele>
        <time>2012-06-15T16:47:34Z</time>
      </trkpt>
      <trkpt lat="45.39241" lon="3.75313">
        <ele>648.29998779297</ele>
        <time>2012-06-15T16:47:37Z</time>
      </trkpt>
      <trkpt lat="45.39241" lon="3.75307">
        <ele>649.59997558594</ele>
        <time>2012-06-15T16:47:40Z</time>
      </trkpt>
      <trkpt lat="45.39238" lon="3.75287">
        <ele>648.59997558594</ele>
        <time>2012-06-15T16:47:50Z</time>
      </trkpt>
      <trkpt lat="45.39238" lon="3.7528">
        <ele>648.40002441406</ele>
        <time>2012-06-15T16:47:53Z</time>
      </trkpt>
      <trkpt lat="45.39236" lon="3.75272">
        <ele>647.29998779297</ele>
        <time>2012-06-15T16:47:57Z</time>
      </trkpt>
      <trkpt lat="45.39237" lon="3.75265">
        <ele>646.40002441406</ele>
        <time>2012-06-15T16:48:01Z</time>
      </trkpt>
      <trkpt lat="45.39236" lon="3.75257">
        <ele>647.79998779297</ele>
        <time>2012-06-15T16:48:05Z</time>
      </trkpt>
      <trkpt lat="45.39233" lon="3.75248">
        <ele>649.40002441406</ele>
        <time>2012-06-15T16:48:10Z</time>
      </trkpt>
      <trkpt lat="45.39231" lon="3.75241">
        <ele>649.29998779297</ele>
        <time>2012-06-15T16:48:13Z</time>
      </trkpt>
      <trkpt lat="45.39229" lon="3.75233">
        <ele>649.79998779297</ele>
        <time>2012-06-15T16:48:17Z</time>
      </trkpt>
      <trkpt lat="45.39228" lon="3.75227">
        <ele>649.29998779297</ele>
        <time>2012-06-15T16:48:21Z</time>
      </trkpt>
      <trkpt lat="45.39226" lon="3.75221">
        <ele>649.09997558594</ele>
        <time>2012-06-15T16:48:24Z</time>
      </trkpt>
      <trkpt lat="45.39226" lon="3.75214">
        <ele>648.59997558594</ele>
        <time>2012-06-15T16:48:27Z</time>
      </trkpt>
      <trkpt lat="45.39225" lon="3.75208">
        <ele>648.5</ele>
        <time>2012-06-15T16:48:30Z</time>
      </trkpt>
      <trkpt lat="45.39222" lon="3.75202">
        <ele>648.40002441406</ele>
        <time>2012-06-15T16:48:34Z</time>
      </trkpt>
      <trkpt lat="45.39221" lon="3.75194">
        <ele>647.70001220703</ele>
        <time>2012-06-15T16:48:38Z</time>
      </trkpt>
      <trkpt lat="45.39219" lon="3.75188">
        <ele>648</ele>
        <time>2012-06-15T16:48:41Z</time>
      </trkpt>
      <trkpt lat="45.39217" lon="3.75181">
        <ele>647.5</ele>
        <time>2012-06-15T16:48:44Z</time>
      </trkpt>
      <trkpt lat="45.39216" lon="3.75174">
        <ele>647.40002441406</ele>
        <time>2012-06-15T16:48:47Z</time>
      </trkpt>
      <trkpt lat="45.39215" lon="3.75167">
        <ele>647.09997558594</ele>
        <time>2012-06-15T16:48:50Z</time>
      </trkpt>
      <trkpt lat="45.39214" lon="3.75158">
        <ele>647.29998779297</ele>
        <time>2012-06-15T16:48:53Z</time>
      </trkpt>
      <trkpt lat="45.39212" lon="3.75149">
        <ele>647.09997558594</ele>
        <time>2012-06-15T16:48:56Z</time>
      </trkpt>
      <trkpt lat="45.39212" lon="3.75139">
        <ele>646.20001220703</ele>
        <time>2012-06-15T16:48:59Z</time>
      </trkpt>
      <trkpt lat="45.39212" lon="3.75131">
        <ele>646.09997558594</ele>
        <time>2012-06-15T16:49:02Z</time>
      </trkpt>
      <trkpt lat="45.39213" lon="3.75121">
        <ele>645.5</ele>
        <time>2012-06-15T16:49:05Z</time>
      </trkpt>
      <trkpt lat="45.39213" lon="3.75114">
        <ele>644.79998779297</ele>
        <time>2012-06-15T16:49:07Z</time>
      </trkpt>
      <trkpt lat="45.39213" lon="3.75105">
        <ele>644.59997558594</ele>
        <time>2012-06-15T16:49:10Z</time>
      </trkpt>
      <trkpt lat="45.39213" lon="3.75098">
        <ele>644.90002441406</ele>
        <time>2012-06-15T16:49:12Z</time>
      </trkpt>
      <trkpt lat="45.39212" lon="3.75089">
        <ele>644.59997558594</ele>
        <time>2012-06-15T16:49:15Z</time>
      </trkpt>
      <trkpt lat="45.39213" lon="3.75083">
        <ele>644.09997558594</ele>
        <time>2012-06-15T16:49:17Z</time>
      </trkpt>
      <trkpt lat="45.39212" lon="3.75073">
        <ele>644.29998779297</ele>
        <time>2012-06-15T16:49:20Z</time>
      </trkpt>
      <trkpt lat="45.39212" lon="3.75064">
        <ele>645.09997558594</ele>
        <time>2012-06-15T16:49:23Z</time>
      </trkpt>
      <trkpt lat="45.39213" lon="3.7505">
        <ele>643.90002441406</ele>
        <time>2012-06-15T16:49:27Z</time>
      </trkpt>
      <trkpt lat="45.39215" lon="3.7503">
        <ele>644.09997558594</ele>
        <time>2012-06-15T16:49:33Z</time>
      </trkpt>
      <trkpt lat="45.39216" lon="3.75021">
        <ele>644.09997558594</ele>
        <time>2012-06-15T16:49:36Z</time>
      </trkpt>
      <trkpt lat="45.39216" lon="3.75012">
        <ele>643.09997558594</ele>
        <time>2012-06-15T16:49:39Z</time>
      </trkpt>
      <trkpt lat="45.39216" lon="3.75004">
        <ele>643.09997558594</ele>
        <time>2012-06-15T16:49:42Z</time>
      </trkpt>
      <trkpt lat="45.39216" lon="3.74997">
        <ele>642.70001220703</ele>
        <time>2012-06-15T16:49:44Z</time>
      </trkpt>
      <trkpt lat="45.39216" lon="3.74989">
        <ele>643.09997558594</ele>
        <time>2012-06-15T16:49:47Z</time>
      </trkpt>
      <trkpt lat="45.39217" lon="3.74978">
        <ele>642.90002441406</ele>
        <time>2012-06-15T16:49:51Z</time>
      </trkpt>
      <trkpt lat="45.39216" lon="3.74967">
        <ele>643.59997558594</ele>
        <time>2012-06-15T16:49:55Z</time>
      </trkpt>
      <trkpt lat="45.39217" lon="3.74958">
        <ele>643.79998779297</ele>
        <time>2012-06-15T16:49:58Z</time>
      </trkpt>
      <trkpt lat="45.39218" lon="3.74949">
        <ele>643.59997558594</ele>
        <time>2012-06-15T16:50:01Z</time>
      </trkpt>
      <trkpt lat="45.39216" lon="3.74941">
        <ele>643.5</ele>
        <time>2012-06-15T16:50:03Z</time>
      </trkpt>
      <trkpt lat="45.39214" lon="3.74935">
        <ele>644.5</ele>
        <time>2012-06-15T16:50:05Z</time>
      </trkpt>
      <trkpt lat="45.3921" lon="3.74929">
        <ele>643.90002441406</ele>
        <time>2012-06-15T16:50:07Z</time>
      </trkpt>
      <trkpt lat="45.39206" lon="3.74921">
        <ele>644</ele>
        <time>2012-06-15T16:50:09Z</time>
      </trkpt>
      <trkpt lat="45.39203" lon="3.74915">
        <ele>643.90002441406</ele>
        <time>2012-06-15T16:50:11Z</time>
      </trkpt>
      <trkpt lat="45.392" lon="3.74909">
        <ele>645.5</ele>
        <time>2012-06-15T16:50:13Z</time>
      </trkpt>
      <trkpt lat="45.39197" lon="3.74903">
        <ele>645.40002441406</ele>
        <time>2012-06-15T16:50:15Z</time>
      </trkpt>
      <trkpt lat="45.39195" lon="3.74896">
        <ele>644.90002441406</ele>
        <time>2012-06-15T16:50:17Z</time>
      </trkpt>
      <trkpt lat="45.39192" lon="3.74889">
        <ele>645.79998779297</ele>
        <time>2012-06-15T16:50:19Z</time>
      </trkpt>
      <trkpt lat="45.3919" lon="3.7488">
        <ele>646.29998779297</ele>
        <time>2012-06-15T16:50:21Z</time>
      </trkpt>
      <trkpt lat="45.39188" lon="3.74874">
        <ele>645.90002441406</ele>
        <time>2012-06-15T16:50:23Z</time>
      </trkpt>
      <trkpt lat="45.39184" lon="3.74864">
        <ele>645.70001220703</ele>
        <time>2012-06-15T16:50:26Z</time>
      </trkpt>
      <trkpt lat="45.39167" lon="3.74854">
        <ele>646</ele>
        <time>2012-06-15T16:50:33Z</time>
      </trkpt>
      <trkpt lat="45.39161" lon="3.74854">
        <ele>645.5</ele>
        <time>2012-06-15T16:50:35Z</time>
      </trkpt>
      <trkpt lat="45.39156" lon="3.74855">
        <ele>644.90002441406</ele>
        <time>2012-06-15T16:50:37Z</time>
      </trkpt>
      <trkpt lat="45.39151" lon="3.74857">
        <ele>644.09997558594</ele>
        <time>2012-06-15T16:50:39Z</time>
      </trkpt>
      <trkpt lat="45.39146" lon="3.74858">
        <ele>643.90002441406</ele>
        <time>2012-06-15T16:50:41Z</time>
      </trkpt>
      <trkpt lat="45.3914" lon="3.74861">
        <ele>643.90002441406</ele>
        <time>2012-06-15T16:50:44Z</time>
      </trkpt>
      <trkpt lat="45.39135" lon="3.74862">
        <ele>643.5</ele>
        <time>2012-06-15T16:50:47Z</time>
      </trkpt>
      <trkpt lat="45.3913" lon="3.74863">
        <ele>643.29998779297</ele>
        <time>2012-06-15T16:50:49Z</time>
      </trkpt>
      <trkpt lat="45.39124" lon="3.74866">
        <ele>643.90002441406</ele>
        <time>2012-06-15T16:50:52Z</time>
      </trkpt>
      <trkpt lat="45.39119" lon="3.74868">
        <ele>643.79998779297</ele>
        <time>2012-06-15T16:50:54Z</time>
      </trkpt>
      <trkpt lat="45.39113" lon="3.7487">
        <ele>643.90002441406</ele>
        <time>2012-06-15T16:50:57Z</time>
      </trkpt>
      <trkpt lat="45.39108" lon="3.74872">
        <ele>643.70001220703</ele>
        <time>2012-06-15T16:50:59Z</time>
      </trkpt>
      <trkpt lat="45.39103" lon="3.74873">
        <ele>643.90002441406</ele>
        <time>2012-06-15T16:51:01Z</time>
      </trkpt>
      <trkpt lat="45.39099" lon="3.74874">
        <ele>643.90002441406</ele>
        <time>2012-06-15T16:51:03Z</time>
      </trkpt>
      <trkpt lat="45.39093" lon="3.74876">
        <ele>644.59997558594</ele>
        <time>2012-06-15T16:51:06Z</time>
      </trkpt>
      <trkpt lat="45.39087" lon="3.74876">
        <ele>645</ele>
        <time>2012-06-15T16:51:09Z</time>
      </trkpt>
      <trkpt lat="45.3908" lon="3.74876">
        <ele>645</ele>
        <time>2012-06-15T16:51:12Z</time>
      </trkpt>
      <trkpt lat="45.39074" lon="3.74876">
        <ele>645</ele>
        <time>2012-06-15T16:51:15Z</time>
      </trkpt>
      <trkpt lat="45.3907" lon="3.74876">
        <ele>645.20001220703</ele>
        <time>2012-06-15T16:51:17Z</time>
      </trkpt>
      <trkpt lat="45.39065" lon="3.74875">
        <ele>646.5</ele>
        <time>2012-06-15T16:51:19Z</time>
      </trkpt>
      <trkpt lat="45.3906" lon="3.74874">
        <ele>647.29998779297</ele>
        <time>2012-06-15T16:51:21Z</time>
      </trkpt>
      <trkpt lat="45.39054" lon="3.74873">
        <ele>647.59997558594</ele>
        <time>2012-06-15T16:51:24Z</time>
      </trkpt>
      <trkpt lat="45.39049" lon="3.74872">
        <ele>645.40002441406</ele>
        <time>2012-06-15T16:51:26Z</time>
      </trkpt>
      <trkpt lat="45.39044" lon="3.74871">
        <ele>645.20001220703</ele>
        <time>2012-06-15T16:51:28Z</time>
      </trkpt>
      <trkpt lat="45.3904" lon="3.74869">
        <ele>645.09997558594</ele>
        <time>2012-06-15T16:51:30Z</time>
      </trkpt>
      <trkpt lat="45.39035" lon="3.74868">
        <ele>644.5</ele>
        <time>2012-06-15T16:51:33Z</time>
      </trkpt>
      <trkpt lat="45.39029" lon="3.74866">
        <ele>643</ele>
        <time>2012-06-15T16:51:36Z</time>
      </trkpt>
      <trkpt lat="45.39022" lon="3.74864">
        <ele>641.29998779297</ele>
        <time>2012-06-15T16:51:39Z</time>
      </trkpt>
      <trkpt lat="45.39017" lon="3.74864">
        <ele>641.90002441406</ele>
        <time>2012-06-15T16:51:41Z</time>
      </trkpt>
      <trkpt lat="45.3901" lon="3.74864">
        <ele>642.20001220703</ele>
        <time>2012-06-15T16:51:44Z</time>
      </trkpt>
      <trkpt lat="45.39004" lon="3.74865">
        <ele>642.09997558594</ele>
        <time>2012-06-15T16:51:47Z</time>
      </trkpt>
      <trkpt lat="45.38999" lon="3.74865">
        <ele>642.59997558594</ele>
        <time>2012-06-15T16:51:49Z</time>
      </trkpt>
      <trkpt lat="45.38994" lon="3.74866">
        <ele>642</ele>
        <time>2012-06-15T16:51:51Z</time>
      </trkpt>
      <trkpt lat="45.3899" lon="3.74866">
        <ele>642.70001220703</ele>
        <time>2012-06-15T16:51:53Z</time>
      </trkpt>
      <trkpt lat="45.38983" lon="3.74865">
        <ele>642</ele>
        <time>2012-06-15T16:51:56Z</time>
      </trkpt>
      <trkpt lat="45.38979" lon="3.74866">
        <ele>642.09997558594</ele>
        <time>2012-06-15T16:51:58Z</time>
      </trkpt>
      <trkpt lat="45.38973" lon="3.74867">
        <ele>642.40002441406</ele>
        <time>2012-06-15T16:52:01Z</time>
      </trkpt>
      <trkpt lat="45.38966" lon="3.74868">
        <ele>642.29998779297</ele>
        <time>2012-06-15T16:52:04Z</time>
      </trkpt>
      <trkpt lat="45.38961" lon="3.74867">
        <ele>642</ele>
        <time>2012-06-15T16:52:06Z</time>
      </trkpt>
      <trkpt lat="45.38955" lon="3.74866">
        <ele>641.5</ele>
        <time>2012-06-15T16:52:09Z</time>
      </trkpt>
      <trkpt lat="45.3895" lon="3.74867">
        <ele>642</ele>
        <time>2012-06-15T16:52:11Z</time>
      </trkpt>
      <trkpt lat="45.38945" lon="3.74868">
        <ele>641.90002441406</ele>
        <time>2012-06-15T16:52:13Z</time>
      </trkpt>
      <trkpt lat="45.38941" lon="3.74868">
        <ele>642</ele>
        <time>2012-06-15T16:52:15Z</time>
      </trkpt>
      <trkpt lat="45.38935" lon="3.74869">
        <ele>642.59997558594</ele>
        <time>2012-06-15T16:52:18Z</time>
      </trkpt>
      <trkpt lat="45.3893" lon="3.7487">
        <ele>642.59997558594</ele>
        <time>2012-06-15T16:52:20Z</time>
      </trkpt>
      <trkpt lat="45.38923" lon="3.74872">
        <ele>643.29998779297</ele>
        <time>2012-06-15T16:52:23Z</time>
      </trkpt>
      <trkpt lat="45.38919" lon="3.74872">
        <ele>642.79998779297</ele>
        <time>2012-06-15T16:52:25Z</time>
      </trkpt>
      <trkpt lat="45.38912" lon="3.74873">
        <ele>642.40002441406</ele>
        <time>2012-06-15T16:52:28Z</time>
      </trkpt>
      <trkpt lat="45.38906" lon="3.74873">
        <ele>642.20001220703</ele>
        <time>2012-06-15T16:52:31Z</time>
      </trkpt>
      <trkpt lat="45.38901" lon="3.74873">
        <ele>642.20001220703</ele>
        <time>2012-06-15T16:52:34Z</time>
      </trkpt>
      <trkpt lat="45.38896" lon="3.74873">
        <ele>642.79998779297</ele>
        <time>2012-06-15T16:52:36Z</time>
      </trkpt>
      <trkpt lat="45.38891" lon="3.74874">
        <ele>643.09997558594</ele>
        <time>2012-06-15T16:52:38Z</time>
      </trkpt>
      <trkpt lat="45.38886" lon="3.74873">
        <ele>642.59997558594</ele>
        <time>2012-06-15T16:52:40Z</time>
      </trkpt>
      <trkpt lat="45.38881" lon="3.74872">
        <ele>642.09997558594</ele>
        <time>2012-06-15T16:52:43Z</time>
      </trkpt>
      <trkpt lat="45.38875" lon="3.74873">
        <ele>642.40002441406</ele>
        <time>2012-06-15T16:52:46Z</time>
      </trkpt>
      <trkpt lat="45.38869" lon="3.74873">
        <ele>643</ele>
        <time>2012-06-15T16:52:49Z</time>
      </trkpt>
      <trkpt lat="45.38863" lon="3.74874">
        <ele>643.5</ele>
        <time>2012-06-15T16:52:52Z</time>
      </trkpt>
      <trkpt lat="45.3885" lon="3.74874">
        <ele>643.5</ele>
        <time>2012-06-15T16:52:58Z</time>
      </trkpt>
      <trkpt lat="45.38845" lon="3.74874">
        <ele>643.59997558594</ele>
        <time>2012-06-15T16:53:00Z</time>
      </trkpt>
      <trkpt lat="45.38835" lon="3.74874">
        <ele>643.90002441406</ele>
        <time>2012-06-15T16:53:05Z</time>
      </trkpt>
      <trkpt lat="45.38829" lon="3.74874">
        <ele>643.59997558594</ele>
        <time>2012-06-15T16:53:08Z</time>
      </trkpt>
      <trkpt lat="45.38824" lon="3.74875">
        <ele>643.79998779297</ele>
        <time>2012-06-15T16:53:10Z</time>
      </trkpt>
      <trkpt lat="45.38819" lon="3.74877">
        <ele>643.40002441406</ele>
        <time>2012-06-15T16:53:12Z</time>
      </trkpt>
      <trkpt lat="45.38814" lon="3.74878">
        <ele>642.29998779297</ele>
        <time>2012-06-15T16:53:14Z</time>
      </trkpt>
      <trkpt lat="45.38806" lon="3.74882">
        <ele>642.29998779297</ele>
        <time>2012-06-15T16:53:18Z</time>
      </trkpt>
      <trkpt lat="45.38801" lon="3.74883">
        <ele>641.59997558594</ele>
        <time>2012-06-15T16:53:20Z</time>
      </trkpt>
      <trkpt lat="45.38791" lon="3.74893">
        <ele>641</ele>
        <time>2012-06-15T16:53:26Z</time>
      </trkpt>
      <trkpt lat="45.38785" lon="3.74898">
        <ele>642.90002441406</ele>
        <time>2012-06-15T16:53:29Z</time>
      </trkpt>
      <trkpt lat="45.38775" lon="3.74906">
        <ele>641.90002441406</ele>
        <time>2012-06-15T16:53:33Z</time>
      </trkpt>
      <trkpt lat="45.38772" lon="3.74911">
        <ele>642.20001220703</ele>
        <time>2012-06-15T16:53:35Z</time>
      </trkpt>
      <trkpt lat="45.38768" lon="3.74916">
        <ele>641.79998779297</ele>
        <time>2012-06-15T16:53:38Z</time>
      </trkpt>
      <trkpt lat="45.38764" lon="3.74918">
        <ele>642.59997558594</ele>
        <time>2012-06-15T16:53:40Z</time>
      </trkpt>
      <trkpt lat="45.38759" lon="3.74924">
        <ele>642.40002441406</ele>
        <time>2012-06-15T16:53:43Z</time>
      </trkpt>
      <trkpt lat="45.38754" lon="3.74928">
        <ele>641.59997558594</ele>
        <time>2012-06-15T16:53:46Z</time>
      </trkpt>
      <trkpt lat="45.38749" lon="3.74932">
        <ele>642.40002441406</ele>
        <time>2012-06-15T16:53:49Z</time>
      </trkpt>
      <trkpt lat="45.38744" lon="3.74936">
        <ele>641.09997558594</ele>
        <time>2012-06-15T16:53:52Z</time>
      </trkpt>
      <trkpt lat="45.38738" lon="3.74939">
        <ele>639</ele>
        <time>2012-06-15T16:53:55Z</time>
      </trkpt>
      <trkpt lat="45.38732" lon="3.74942">
        <ele>640.59997558594</ele>
        <time>2012-06-15T16:53:58Z</time>
      </trkpt>
      <trkpt lat="45.38726" lon="3.74945">
        <ele>641.40002441406</ele>
        <time>2012-06-15T16:54:01Z</time>
      </trkpt>
      <trkpt lat="45.38718" lon="3.74948">
        <ele>642.79998779297</ele>
        <time>2012-06-15T16:54:05Z</time>
      </trkpt>
      <trkpt lat="45.3871" lon="3.74953">
        <ele>643.40002441406</ele>
        <time>2012-06-15T16:54:09Z</time>
      </trkpt>
      <trkpt lat="45.38701" lon="3.74959">
        <ele>643.20001220703</ele>
        <time>2012-06-15T16:54:13Z</time>
      </trkpt>
      <trkpt lat="45.38697" lon="3.74962">
        <ele>643.40002441406</ele>
        <time>2012-06-15T16:54:15Z</time>
      </trkpt>
      <trkpt lat="45.38693" lon="3.74965">
        <ele>643.79998779297</ele>
        <time>2012-06-15T16:54:17Z</time>
      </trkpt>
      <trkpt lat="45.38688" lon="3.74967">
        <ele>644.09997558594</ele>
        <time>2012-06-15T16:54:19Z</time>
      </trkpt>
      <trkpt lat="45.38682" lon="3.7497">
        <ele>644.5</ele>
        <time>2012-06-15T16:54:22Z</time>
      </trkpt>
      <trkpt lat="45.38676" lon="3.74973">
        <ele>644.29998779297</ele>
        <time>2012-06-15T16:54:25Z</time>
      </trkpt>
      <trkpt lat="45.3867" lon="3.74976">
        <ele>644.5</ele>
        <time>2012-06-15T16:54:28Z</time>
      </trkpt>
      <trkpt lat="45.38664" lon="3.7498">
        <ele>645</ele>
        <time>2012-06-15T16:54:31Z</time>
      </trkpt>
      <trkpt lat="45.38658" lon="3.74983">
        <ele>645.29998779297</ele>
        <time>2012-06-15T16:54:34Z</time>
      </trkpt>
      <trkpt lat="45.38652" lon="3.74987">
        <ele>646.40002441406</ele>
        <time>2012-06-15T16:54:37Z</time>
      </trkpt>
      <trkpt lat="45.3864" lon="3.74995">
        <ele>645.40002441406</ele>
        <time>2012-06-15T16:54:44Z</time>
      </trkpt>
      <trkpt lat="45.38634" lon="3.75">
        <ele>645.90002441406</ele>
        <time>2012-06-15T16:54:47Z</time>
      </trkpt>
      <trkpt lat="45.38629" lon="3.75005">
        <ele>646.40002441406</ele>
        <time>2012-06-15T16:54:50Z</time>
      </trkpt>
      <trkpt lat="45.38624" lon="3.7501">
        <ele>647.29998779297</ele>
        <time>2012-06-15T16:54:53Z</time>
      </trkpt>
      <trkpt lat="45.38619" lon="3.75013">
        <ele>647</ele>
        <time>2012-06-15T16:54:56Z</time>
      </trkpt>
      <trkpt lat="45.38614" lon="3.75019">
        <ele>647.90002441406</ele>
        <time>2012-06-15T16:54:59Z</time>
      </trkpt>
      <trkpt lat="45.3861" lon="3.75025">
        <ele>648.29998779297</ele>
        <time>2012-06-15T16:55:02Z</time>
      </trkpt>
      <trkpt lat="45.38605" lon="3.75032">
        <ele>648.40002441406</ele>
        <time>2012-06-15T16:55:05Z</time>
      </trkpt>
      <trkpt lat="45.38599" lon="3.75043">
        <ele>648.90002441406</ele>
        <time>2012-06-15T16:55:10Z</time>
      </trkpt>
      <trkpt lat="45.38594" lon="3.75051">
        <ele>648.40002441406</ele>
        <time>2012-06-15T16:55:14Z</time>
      </trkpt>
      <trkpt lat="45.3859" lon="3.75055">
        <ele>648.20001220703</ele>
        <time>2012-06-15T16:55:16Z</time>
      </trkpt>
      <trkpt lat="45.38586" lon="3.75061">
        <ele>647.5</ele>
        <time>2012-06-15T16:55:19Z</time>
      </trkpt>
      <trkpt lat="45.38583" lon="3.75066">
        <ele>648.20001220703</ele>
        <time>2012-06-15T16:55:22Z</time>
      </trkpt>
      <trkpt lat="45.38579" lon="3.75071">
        <ele>648.5</ele>
        <time>2012-06-15T16:55:25Z</time>
      </trkpt>
      <trkpt lat="45.38575" lon="3.75075">
        <ele>649</ele>
        <time>2012-06-15T16:55:27Z</time>
      </trkpt>
      <trkpt lat="45.38569" lon="3.7508">
        <ele>650.20001220703</ele>
        <time>2012-06-15T16:55:30Z</time>
      </trkpt>
      <trkpt lat="45.38566" lon="3.75084">
        <ele>650.59997558594</ele>
        <time>2012-06-15T16:55:33Z</time>
      </trkpt>
      <trkpt lat="45.38561" lon="3.75089">
        <ele>650.70001220703</ele>
        <time>2012-06-15T16:55:36Z</time>
      </trkpt>
      <trkpt lat="45.38557" lon="3.75093">
        <ele>651</ele>
        <time>2012-06-15T16:55:39Z</time>
      </trkpt>
      <trkpt lat="45.38552" lon="3.75097">
        <ele>651</ele>
        <time>2012-06-15T16:55:42Z</time>
      </trkpt>
      <trkpt lat="45.38547" lon="3.75101">
        <ele>651.20001220703</ele>
        <time>2012-06-15T16:55:45Z</time>
      </trkpt>
      <trkpt lat="45.38542" lon="3.75105">
        <ele>651.79998779297</ele>
        <time>2012-06-15T16:55:48Z</time>
      </trkpt>
      <trkpt lat="45.38536" lon="3.75108">
        <ele>652.09997558594</ele>
        <time>2012-06-15T16:55:51Z</time>
      </trkpt>
      <trkpt lat="45.38532" lon="3.75111">
        <ele>653</ele>
        <time>2012-06-15T16:55:54Z</time>
      </trkpt>
      <trkpt lat="45.38526" lon="3.75113">
        <ele>652.90002441406</ele>
        <time>2012-06-15T16:55:57Z</time>
      </trkpt>
      <trkpt lat="45.38521" lon="3.75113">
        <ele>651.79998779297</ele>
        <time>2012-06-15T16:56:00Z</time>
      </trkpt>
      <trkpt lat="45.38516" lon="3.75116">
        <ele>652.40002441406</ele>
        <time>2012-06-15T16:56:05Z</time>
      </trkpt>
      <trkpt lat="45.38512" lon="3.75118">
        <ele>653.59997558594</ele>
        <time>2012-06-15T16:56:08Z</time>
      </trkpt>
      <trkpt lat="45.38503" lon="3.75121">
        <ele>655.40002441406</ele>
        <time>2012-06-15T16:56:13Z</time>
      </trkpt>
      <trkpt lat="45.38489" lon="3.75123">
        <ele>656.09997558594</ele>
        <time>2012-06-15T16:56:19Z</time>
      </trkpt>
      <trkpt lat="45.38484" lon="3.75123">
        <ele>657.09997558594</ele>
        <time>2012-06-15T16:56:22Z</time>
      </trkpt>
      <trkpt lat="45.38479" lon="3.75126">
        <ele>658.09997558594</ele>
        <time>2012-06-15T16:56:28Z</time>
      </trkpt>
      <trkpt lat="45.38473" lon="3.75127">
        <ele>658.79998779297</ele>
        <time>2012-06-15T16:56:31Z</time>
      </trkpt>
      <trkpt lat="45.38467" lon="3.75129">
        <ele>658</ele>
        <time>2012-06-15T16:56:35Z</time>
      </trkpt>
      <trkpt lat="45.38463" lon="3.75132">
        <ele>654.40002441406</ele>
        <time>2012-06-15T16:56:39Z</time>
      </trkpt>
      <trkpt lat="45.38457" lon="3.75132">
        <ele>654.59997558594</ele>
        <time>2012-06-15T16:56:42Z</time>
      </trkpt>
      <trkpt lat="45.38453" lon="3.75133">
        <ele>654.20001220703</ele>
        <time>2012-06-15T16:56:45Z</time>
      </trkpt>
      <trkpt lat="45.38447" lon="3.75132">
        <ele>654.5</ele>
        <time>2012-06-15T16:56:48Z</time>
      </trkpt>
      <trkpt lat="45.38443" lon="3.7513">
        <ele>655.40002441406</ele>
        <time>2012-06-15T16:56:51Z</time>
      </trkpt>
      <trkpt lat="45.38438" lon="3.75128">
        <ele>655.70001220703</ele>
        <time>2012-06-15T16:56:54Z</time>
      </trkpt>
      <trkpt lat="45.38433" lon="3.75123">
        <ele>656</ele>
        <time>2012-06-15T16:56:57Z</time>
      </trkpt>
      <trkpt lat="45.3843" lon="3.75118">
        <ele>656.20001220703</ele>
        <time>2012-06-15T16:56:59Z</time>
      </trkpt>
      <trkpt lat="45.38425" lon="3.75114">
        <ele>656.59997558594</ele>
        <time>2012-06-15T16:57:02Z</time>
      </trkpt>
      <trkpt lat="45.3842" lon="3.7511">
        <ele>658</ele>
        <time>2012-06-15T16:57:05Z</time>
      </trkpt>
      <trkpt lat="45.38414" lon="3.75105">
        <ele>659.59997558594</ele>
        <time>2012-06-15T16:57:08Z</time>
      </trkpt>
      <trkpt lat="45.38409" lon="3.75101">
        <ele>660.59997558594</ele>
        <time>2012-06-15T16:57:11Z</time>
      </trkpt>
      <trkpt lat="45.38405" lon="3.75097">
        <ele>660.59997558594</ele>
        <time>2012-06-15T16:57:13Z</time>
      </trkpt>
      <trkpt lat="45.38402" lon="3.75093">
        <ele>661.20001220703</ele>
        <time>2012-06-15T16:57:16Z</time>
      </trkpt>
      <trkpt lat="45.38397" lon="3.75091">
        <ele>661.79998779297</ele>
        <time>2012-06-15T16:57:19Z</time>
      </trkpt>
      <trkpt lat="45.38391" lon="3.7509">
        <ele>662.5</ele>
        <time>2012-06-15T16:57:22Z</time>
      </trkpt>
      <trkpt lat="45.38368" lon="3.75092">
        <ele>662.5</ele>
        <time>2012-06-15T16:57:34Z</time>
      </trkpt>
      <trkpt lat="45.38363" lon="3.75098">
        <ele>658.79998779297</ele>
        <time>2012-06-15T16:57:37Z</time>
      </trkpt>
      <trkpt lat="45.38361" lon="3.75105">
        <ele>658.90002441406</ele>
        <time>2012-06-15T16:57:40Z</time>
      </trkpt>
      <trkpt lat="45.38362" lon="3.75114">
        <ele>662.59997558594</ele>
        <time>2012-06-15T16:57:42Z</time>
      </trkpt>
      <trkpt lat="45.38363" lon="3.75121">
        <ele>663.20001220703</ele>
        <time>2012-06-15T16:57:44Z</time>
      </trkpt>
      <trkpt lat="45.38363" lon="3.75127">
        <ele>663.59997558594</ele>
        <time>2012-06-15T16:57:47Z</time>
      </trkpt>
      <trkpt lat="45.38365" lon="3.75135">
        <ele>663.59997558594</ele>
        <time>2012-06-15T16:57:50Z</time>
      </trkpt>
    </trkseg>
  </trk>
</gpx>